Jena Marie C. — WDD4969 — position and weather

sailwx.info

Track history (hours):
 
Tides and Currents Weather Stations Pressure Air Temp Water Temp Dewpoint Dewpoint Depression Visibility Wind Speed Wind Dir Waves Ship Positions

Jena Marie C.

Owner: Scott C. Marine Towing, LLC, Marrero, LA. More information available from US FCC via Universal Licensing System and Coast Guard Vessel Documentation Center.

Last reported at 2014-Nov-27 09:25 UTC. Time now 2014-Nov-27 20:45 UTC.
Position N 30°06' W 090°55'.

Length 19 m; draft 2.5 m.

Type: Towing. MMSI: 367151880.

Date/timePositionNaut miles runAvg speedWind from/ knotsBaromVisibWave heightAir tempDewpointWater temp
2014-Nov-27 09:25N 30°06' W 090°55'20 0.6
2014-Nov-26 00:14N 29°53' W 091°13'3 5.2
2014-Nov-25 23:33N 29°50' W 091°11'5 5.5
2014-Nov-25 22:33N 29°45' W 091°11'4 4.3
2014-Nov-25 21:33N 29°41' W 091°13'5 5.3
2014-Nov-25 20:33N 29°38' W 091°19'17 2.1
2014-Nov-25 12:23N 29°46' W 091°37'6 6.5
2014-Nov-25 11:31N 29°42' W 091°32'6 6.6
2014-Nov-25 10:33N 29°39' W 091°25'7 6.6
2014-Nov-25 09:33N 29°39' W 091°18'6 6.1
2014-Nov-25 08:33N 29°41' W 091°11'5 5.0
2014-Nov-25 07:33N 29°39' W 091°06'7 5.6
2014-Nov-25 06:20N 29°37' W 090°59'17 4.5
2014-Nov-25 02:26N 29°35' W 090°39'4 4.9
2014-Nov-25 01:32N 29°34' W 090°34'6 5.5
2014-Nov-25 00:25N 29°33' W 090°27'26 5.3
2014-Nov-24 19:33N 29°50' W 090°04'5 4.0
2014-Nov-24 18:21N 29°55' W 090°05'2 2.3
2014-Nov-24 17:32N 29°54' W 090°07'1 0.1
2014-Nov-23 23:27N 29°54' W 090°06'0 0.0
2014-Nov-23 21:33N 29°54' W 090°06'0 0.0
2014-Nov-23 20:31N 29°54' W 090°06'0 0.0
2014-Nov-23 19:25N 29°54' W 090°06'0 0.0
2014-Nov-23 18:24N 29°54' W 090°06'0 0.0
2014-Nov-23 17:28N 29°54' W 090°06'1 0.7
2014-Nov-23 16:31N 29°54' W 090°07'0 0.4
2014-Nov-23 15:29N 29°54' W 090°07'0 0.0
2014-Nov-23 14:33N 29°54' W 090°07'0 0.0
2014-Nov-23 13:33N 29°54' W 090°07'0 0.0
2014-Nov-23 12:33N 29°54' W 090°07'0 0.0
2014-Nov-23 11:33N 29°54' W 090°07'0 0.0
2014-Nov-23 10:32N 29°54' W 090°07'0 0.0
2014-Nov-23 09:33N 29°54' W 090°07'0 0.0
2014-Nov-23 08:33N 29°54' W 090°07'0 0.0
2014-Nov-23 07:32N 29°54' W 090°07'0 0.0
2014-Nov-23 06:33N 29°54' W 090°07'0 0.0
2014-Nov-23 05:30N 29°54' W 090°07'0 0.0
2014-Nov-23 04:25N 29°54' W 090°07'0 0.0
2014-Nov-23 03:29N 29°54' W 090°07'3 0.1
2014-Nov-22 00:23N 29°55' W 090°04'2 0.8
2014-Nov-21 21:31N 29°55' W 090°06'5 5.1
2014-Nov-21 20:33N 29°58' W 090°02'0 0.3
2014-Nov-21 19:30N 29°58' W 090°02'2 1.9
2014-Nov-21 18:32N 30°00' W 090°01'0 0.0
2014-Nov-21 17:33N 30°00' W 090°01'0 0.0
2014-Nov-21 16:31N 30°00' W 090°01'0 0.0
2014-Nov-21 15:33N 30°00' W 090°01'0 0.0
2014-Nov-21 14:33N 30°00' W 090°01'0 0.0
2014-Nov-21 13:33N 30°00' W 090°01'0 0.0
2014-Nov-21 12:31N 30°00' W 090°01'0 0.0
2014-Nov-21 11:30N 30°00' W 090°01'0 0.0
2014-Nov-21 10:33N 30°00' W 090°01'0 0.0
2014-Nov-21 09:29N 30°00' W 090°01'0 0.0
2014-Nov-21 08:30N 30°00' W 090°01'0 0.0
2014-Nov-21 07:27N 30°00' W 090°01'0 0.0
2014-Nov-21 06:14N 30°00' W 090°01'7 0.3
2014-Nov-20 02:03N 30°01' W 089°53'3 6.2
2014-Nov-20 01:33N 30°00' W 089°56'5 5.0
2014-Nov-20 00:32N 29°58' W 090°02'0 0.1
2014-Nov-19 23:25N 29°58' W 090°02'0 0.0
2014-Nov-19 22:33N 29°58' W 090°02'3 2.9
2014-Nov-19 21:33N 29°55' W 090°04'2 0.2
2014-Nov-19 11:25N 29°54' W 090°06'1 0.0
2014-Nov-18 17:25N 29°54' W 090°07'0 0.0
2014-Nov-18 16:23N 29°54' W 090°07'0 0.0
2014-Nov-18 15:33N 29°54' W 090°07'0 0.0
2014-Nov-18 14:31N 29°54' W 090°07'2 1.7
2014-Nov-18 13:33N 29°55' W 090°05'2 1.9
2014-Nov-18 12:32N 29°54' W 090°07'1 1.3
2014-Nov-18 11:23N 29°56' W 090°08'5 5.5
2014-Nov-18 10:32N 29°57' W 090°03'7 3.1
2014-Nov-18 08:10N 29°50' W 090°03'2 3.3
2014-Nov-18 07:29N 29°48' W 090°04'1 0.2
2014-Nov-18 04:07N 29°49' W 090°04'6 6.5
2014-Nov-18 03:08N 29°54' W 089°60'2 2.4
2014-Nov-18 02:17N 29°55' W 089°58'5 6.4
2014-Nov-18 01:31N 29°57' W 090°04'4 4.1
2014-Nov-18 00:29N 29°54' W 090°07'0 0.0
2014-Nov-17 23:33N 29°54' W 090°07'  
Track history (hours):
 
Tides and Currents Weather Stations Pressure Air Temp Water Temp Dewpoint Dewpoint Depression Visibility Wind Speed Wind Dir Waves Ship Positions

Jena Marie C.

Owner: Scott C. Marine Towing, LLC, Marrero, LA. More information available from US FCC via Universal Licensing System and Coast Guard Vessel Documentation Center.

Last reported at 2014-Nov-27 09:25 UTC. Time now 2014-Nov-27 20:45 UTC.
Position N 30°06' W 090°55'.

Length 19 m; draft 2.5 m.

Type: Towing. MMSI: 367151880.

Date/timePositionNaut miles runAvg speedWind from/ knotsBaromVisibWave heightAir tempDewpointWater temp
2014-Nov-27 09:25N 30°06' W 090°55'20 0.6
2014-Nov-26 00:14N 29°53' W 091°13'3 5.2
2014-Nov-25 23:33N 29°50' W 091°11'5 5.5
2014-Nov-25 22:33N 29°45' W 091°11'4 4.3
2014-Nov-25 21:33N 29°41' W 091°13'5 5.3
2014-Nov-25 20:33N 29°38' W 091°19'17 2.1
2014-Nov-25 12:23N 29°46' W 091°37'6 6.5
2014-Nov-25 11:31N 29°42' W 091°32'6 6.6
2014-Nov-25 10:33N 29°39' W 091°25'7 6.6
2014-Nov-25 09:33N 29°39' W 091°18'6 6.1
2014-Nov-25 08:33N 29°41' W 091°11'5 5.0
2014-Nov-25 07:33N 29°39' W 091°06'7 5.6
2014-Nov-25 06:20N 29°37' W 090°59'17 4.5
2014-Nov-25 02:26N 29°35' W 090°39'4 4.9
2014-Nov-25 01:32N 29°34' W 090°34'6 5.5
2014-Nov-25 00:25N 29°33' W 090°27'26 5.3
2014-Nov-24 19:33N 29°50' W 090°04'5 4.0
2014-Nov-24 18:21N 29°55' W 090°05'2 2.3
2014-Nov-24 17:32N 29°54' W 090°07'1 0.1
2014-Nov-23 23:27N 29°54' W 090°06'0 0.0
2014-Nov-23 21:33N 29°54' W 090°06'0 0.0
2014-Nov-23 20:31N 29°54' W 090°06'0 0.0
2014-Nov-23 19:25N 29°54' W 090°06'0 0.0
2014-Nov-23 18:24N 29°54' W 090°06'0 0.0
2014-Nov-23 17:28N 29°54' W 090°06'1 0.7
2014-Nov-23 16:31N 29°54' W 090°07'0 0.4
2014-Nov-23 15:29N 29°54' W 090°07'0 0.0
2014-Nov-23 14:33N 29°54' W 090°07'0 0.0
2014-Nov-23 13:33N 29°54' W 090°07'0 0.0
2014-Nov-23 12:33N 29°54' W 090°07'0 0.0
2014-Nov-23 11:33N 29°54' W 090°07'0 0.0
2014-Nov-23 10:32N 29°54' W 090°07'0 0.0
2014-Nov-23 09:33N 29°54' W 090°07'0 0.0
2014-Nov-23 08:33N 29°54' W 090°07'0 0.0
2014-Nov-23 07:32N 29°54' W 090°07'0 0.0
2014-Nov-23 06:33N 29°54' W 090°07'0 0.0
2014-Nov-23 05:30N 29°54' W 090°07'0 0.0
2014-Nov-23 04:25N 29°54' W 090°07'0 0.0
2014-Nov-23 03:29N 29°54' W 090°07'3 0.1
2014-Nov-22 00:23N 29°55' W 090°04'2 0.8
2014-Nov-21 21:31N 29°55' W 090°06'5 5.1
2014-Nov-21 20:33N 29°58' W 090°02'0 0.3
2014-Nov-21 19:30N 29°58' W 090°02'2 1.9
2014-Nov-21 18:32N 30°00' W 090°01'0 0.0
2014-Nov-21 17:33N 30°00' W 090°01'0 0.0
2014-Nov-21 16:31N 30°00' W 090°01'0 0.0
2014-Nov-21 15:33N 30°00' W 090°01'0 0.0
2014-Nov-21 14:33N 30°00' W 090°01'0 0.0
2014-Nov-21 13:33N 30°00' W 090°01'0 0.0
2014-Nov-21 12:31N 30°00' W 090°01'0 0.0
2014-Nov-21 11:30N 30°00' W 090°01'0 0.0
2014-Nov-21 10:33N 30°00' W 090°01'0 0.0
2014-Nov-21 09:29N 30°00' W 090°01'0 0.0
2014-Nov-21 08:30N 30°00' W 090°01'0 0.0
2014-Nov-21 07:27N 30°00' W 090°01'0 0.0
2014-Nov-21 06:14N 30°00' W 090°01'7 0.3
2014-Nov-20 02:03N 30°01' W 089°53'3 6.2
2014-Nov-20 01:33N 30°00' W 089°56'5 5.0
2014-Nov-20 00:32N 29°58' W 090°02'0 0.1
2014-Nov-19 23:25N 29°58' W 090°02'0 0.0
2014-Nov-19 22:33N 29°58' W 090°02'3 2.9
2014-Nov-19 21:33N 29°55' W 090°04'2 0.2
2014-Nov-19 11:25N 29°54' W 090°06'1 0.0
2014-Nov-18 17:25N 29°54' W 090°07'0 0.0
2014-Nov-18 16:23N 29°54' W 090°07'0 0.0
2014-Nov-18 15:33N 29°54' W 090°07'0 0.0
2014-Nov-18 14:31N 29°54' W 090°07'2 1.7
2014-Nov-18 13:33N 29°55' W 090°05'2 1.9
2014-Nov-18 12:32N 29°54' W 090°07'1 1.3
2014-Nov-18 11:23N 29°56' W 090°08'5 5.5
2014-Nov-18 10:32N 29°57' W 090°03'7 3.1
2014-Nov-18 08:10N 29°50' W 090°03'2 3.3
2014-Nov-18 07:29N 29°48' W 090°04'1 0.2
2014-Nov-18 04:07N 29°49' W 090°04'6 6.5
2014-Nov-18 03:08N 29°54' W 089°60'2 2.4
2014-Nov-18 02:17N 29°55' W 089°58'5 6.4
2014-Nov-18 01:31N 29°57' W 090°04'4 4.1
2014-Nov-18 00:29N 29°54' W 090°07'0 0.0
2014-Nov-17 23:33N 29°54' W 090°07'  

Dump ship's entire track history